createdAt,value
2022-12-24T00:00:10.909Z,10.20
2022-12-24T00:02:38.000Z,10.20
2022-12-24T00:05:05.710Z,10.30
2022-12-24T00:07:32.489Z,10.20
2022-12-24T00:09:59.266Z,10.20
2022-12-24T00:12:26.498Z,10.30
2022-12-24T00:14:53.286Z,10.20
2022-12-24T00:17:20.212Z,10.20
2022-12-24T00:19:47.043Z,10.20
2022-12-24T00:22:13.897Z,10.20
2022-12-24T00:24:40.723Z,10.20
2022-12-24T00:27:07.594Z,10.20
2022-12-24T00:29:34.481Z,10.20
2022-12-24T00:32:01.306Z,10.20
2022-12-24T00:34:28.109Z,10.20
2022-12-24T00:36:54.928Z,10.20
2022-12-24T00:39:21.705Z,10.20
2022-12-24T00:41:48.495Z,10.20
2022-12-24T00:44:15.429Z,10.20
2022-12-24T00:46:42.331Z,10.20
2022-12-24T00:49:10.028Z,10.20
2022-12-24T00:51:37.260Z,10.20
2022-12-24T00:54:04.632Z,10.20
2022-12-24T00:56:31.663Z,10.20
2022-12-24T00:58:58.523Z,10.20
2022-12-24T01:01:26.527Z,10.20
2022-12-24T01:04:13.786Z,10.20
2022-12-24T01:06:40.730Z,10.20
2022-12-24T01:09:07.599Z,10.30
2022-12-24T01:11:34.411Z,10.30
2022-12-24T01:14:01.237Z,10.30
2022-12-24T01:16:28.135Z,10.30
2022-12-24T01:18:55.064Z,10.30
2022-12-24T01:21:21.876Z,10.20
2022-12-24T01:23:48.940Z,10.30
2022-12-24T01:26:15.902Z,10.30
2022-12-24T01:28:42.766Z,10.30
2022-12-24T01:31:18.035Z,10.30
2022-12-24T01:33:45.739Z,10.30
2022-12-24T01:36:14.823Z,10.30
2022-12-24T01:38:42.115Z,10.30
2022-12-24T01:41:33.976Z,10.30
2022-12-24T01:44:17.371Z,10.30
2022-12-24T01:46:44.816Z,10.30
2022-12-24T01:49:14.258Z,10.30
2022-12-24T01:51:45.180Z,10.30
2022-12-24T01:54:13.595Z,10.30
2022-12-24T01:56:45.415Z,10.30
2022-12-24T01:59:15.252Z,10.20
2022-12-24T02:01:42.197Z,10.20
2022-12-24T02:04:43.201Z,10.20
2022-12-24T02:07:10.392Z,10.20
2022-12-24T02:09:37.301Z,10.20
2022-12-24T02:12:04.993Z,10.20
2022-12-24T02:14:32.464Z,10.20
2022-12-24T02:17:02.728Z,10.20
2022-12-24T02:20:01.792Z,10.20
2022-12-24T02:22:43.980Z,10.20
2022-12-24T02:25:13.950Z,10.20
2022-12-24T02:28:05.863Z,10.20
2022-12-24T02:30:47.010Z,10.30
2022-12-24T02:33:31.078Z,10.20
2022-12-24T02:36:00.888Z,10.20
2022-12-24T02:38:33.318Z,10.20
2022-12-24T02:41:11.167Z,10.30
2022-12-24T02:43:40.202Z,10.30
2022-12-24T02:46:14.371Z,10.20
2022-12-24T02:48:42.537Z,10.20
2022-12-24T02:51:10.579Z,10.20
2022-12-24T02:53:38.156Z,10.30
2022-12-24T02:56:41.985Z,10.30
2022-12-24T02:59:17.737Z,10.20
2022-12-24T03:01:53.154Z,10.30
2022-12-24T03:04:19.957Z,10.30
2022-12-24T03:07:00.523Z,10.30
2022-12-24T03:09:32.729Z,10.30
2022-12-24T03:12:10.659Z,10.30
2022-12-24T03:14:38.807Z,10.30
2022-12-24T03:17:05.709Z,10.30
2022-12-24T03:19:33.018Z,10.20
2022-12-24T03:22:01.145Z,10.20
2022-12-24T03:24:28.200Z,10.30
2022-12-24T03:26:55.375Z,10.20
2022-12-24T03:29:22.192Z,10.20
2022-12-24T03:31:52.136Z,10.30
2022-12-24T03:34:19.475Z,10.20
2022-12-24T03:36:47.256Z,10.20
2022-12-24T03:39:14.075Z,10.20
2022-12-24T03:41:40.871Z,10.20
2022-12-24T03:44:07.729Z,10.20
2022-12-24T03:46:34.759Z,10.20
2022-12-24T03:49:01.609Z,10.20
2022-12-24T03:51:28.617Z,10.20
2022-12-24T03:53:57.038Z,10.20
2022-12-24T03:56:24.558Z,10.20
2022-12-24T03:58:51.422Z,10.10
2022-12-24T04:01:18.802Z,10.10
2022-12-24T04:03:46.070Z,10.10
2022-12-24T04:06:15.980Z,10.10
2022-12-24T04:08:42.861Z,10.00
2022-12-24T04:11:11.879Z,10.00
2022-12-24T04:13:38.779Z,10.00
2022-12-24T04:16:08.333Z,10.00
2022-12-24T04:18:36.238Z,10.00
2022-12-24T04:21:03.412Z,10.00
2022-12-24T04:23:31.620Z,9.90
2022-12-24T04:26:06.316Z,9.90
2022-12-24T04:28:33.715Z,9.90
2022-12-24T04:31:02.180Z,9.90
2022-12-24T04:33:29.154Z,9.90
2022-12-24T04:36:00.676Z,10.00
2022-12-24T04:38:28.086Z,9.90
2022-12-24T04:40:59.897Z,10.00
2022-12-24T04:43:27.724Z,9.90
2022-12-24T04:45:54.748Z,9.90
2022-12-24T04:48:21.660Z,9.90
2022-12-24T04:50:48.465Z,9.90
2022-12-24T04:53:15.399Z,9.80
2022-12-24T04:55:45.967Z,9.90
2022-12-24T04:58:13.614Z,9.80
2022-12-24T05:00:40.895Z,9.80
2022-12-24T05:03:07.735Z,9.80
2022-12-24T05:05:34.628Z,9.80
2022-12-24T05:08:01.436Z,9.80
2022-12-24T05:10:28.705Z,9.80
2022-12-24T05:12:56.086Z,9.80
2022-12-24T05:15:22.918Z,9.70
2022-12-24T05:17:49.895Z,9.70
2022-12-24T05:20:16.930Z,9.70
2022-12-24T05:23:02.389Z,9.70
2022-12-24T05:25:51.793Z,9.70
2022-12-24T05:28:18.675Z,9.70
2022-12-24T05:30:45.563Z,9.60
2022-12-24T05:33:12.404Z,9.60
2022-12-24T05:35:39.241Z,9.60
2022-12-24T05:38:06.096Z,9.60
2022-12-24T05:40:32.981Z,9.60
2022-12-24T05:42:59.769Z,9.60
2022-12-24T05:45:26.581Z,9.60
2022-12-24T05:47:53.342Z,9.60
2022-12-24T05:50:20.133Z,9.60
2022-12-24T05:52:46.920Z,9.60
2022-12-24T05:55:13.765Z,9.60
2022-12-24T05:57:41.493Z,9.60
2022-12-24T06:00:09.154Z,9.60
2022-12-24T06:02:36.021Z,9.60
2022-12-24T06:05:02.967Z,9.60
2022-12-24T06:07:29.827Z,9.70
2022-12-24T06:09:56.605Z,9.60
2022-12-24T06:12:23.383Z,9.70
2022-12-24T06:14:50.180Z,9.60
2022-12-24T06:17:16.975Z,9.70
2022-12-24T06:19:44.482Z,9.70
2022-12-24T06:22:11.286Z,9.70
2022-12-24T06:24:38.091Z,9.70
2022-12-24T06:27:04.864Z,9.70
2022-12-24T06:29:31.613Z,9.60
2022-12-24T06:31:58.436Z,9.70
2022-12-24T06:34:25.320Z,9.70
2022-12-24T06:36:52.144Z,9.60
2022-12-24T06:39:18.936Z,9.60
2022-12-24T06:41:45.789Z,9.70
2022-12-24T06:44:12.608Z,9.60
2022-12-24T06:46:39.486Z,9.60
2022-12-24T06:49:06.368Z,9.70
2022-12-24T06:51:33.214Z,9.60
2022-12-24T06:54:00.001Z,9.60
2022-12-24T06:56:26.962Z,9.60
2022-12-24T06:58:53.837Z,9.60
2022-12-24T07:01:21.283Z,9.60
2022-12-24T07:03:48.544Z,9.60
2022-12-24T07:06:18.899Z,9.60
2022-12-24T07:08:45.845Z,9.60
2022-12-24T07:11:12.651Z,9.60
2022-12-24T07:13:39.511Z,9.60
2022-12-24T07:16:06.798Z,9.60
2022-12-24T07:18:33.736Z,9.60
2022-12-24T07:21:01.064Z,9.60
2022-12-24T07:23:28.134Z,9.60
2022-12-24T07:25:54.945Z,9.60
2022-12-24T07:28:27.643Z,9.60
2022-12-24T07:30:56.479Z,9.60
2022-12-24T07:33:24.017Z,9.60
2022-12-24T07:35:58.347Z,9.60
2022-12-24T07:38:25.219Z,9.60
2022-12-24T07:40:52.027Z,9.60
2022-12-24T07:43:18.804Z,9.60
2022-12-24T07:45:45.657Z,9.60
2022-12-24T07:48:12.435Z,9.60
2022-12-24T07:50:39.263Z,9.60
2022-12-24T07:53:06.049Z,9.60
2022-12-24T07:55:32.876Z,9.60
2022-12-24T07:57:59.656Z,9.50
2022-12-24T08:00:26.446Z,9.60
2022-12-24T08:02:53.404Z,9.50
2022-12-24T08:05:20.566Z,9.50
2022-12-24T08:07:47.366Z,9.60
2022-12-24T08:10:14.188Z,9.50
2022-12-24T08:12:41.034Z,9.60
2022-12-24T08:15:08.091Z,9.60
2022-12-24T08:17:34.871Z,9.50
2022-12-24T08:20:01.852Z,9.60
2022-12-24T08:22:28.683Z,9.50
2022-12-24T08:24:55.555Z,9.60
2022-12-24T08:27:22.395Z,9.60
2022-12-24T08:29:49.223Z,9.50
2022-12-24T08:32:16.154Z,9.60
2022-12-24T08:34:42.966Z,9.60
2022-12-24T08:37:09.824Z,9.60
2022-12-24T08:39:36.723Z,9.70
2022-12-24T08:42:03.983Z,9.70
2022-12-24T08:44:30.812Z,9.70
2022-12-24T08:46:57.643Z,9.70
2022-12-24T08:49:24.535Z,9.70
2022-12-24T08:51:51.923Z,9.70
2022-12-24T08:54:19.213Z,9.60
2022-12-24T08:56:45.988Z,9.70
2022-12-24T08:59:12.823Z,9.60
2022-12-24T09:01:39.874Z,9.60
2022-12-24T09:04:06.881Z,9.60
2022-12-24T09:06:33.988Z,9.60
2022-12-24T09:09:00.781Z,9.60
2022-12-24T09:11:27.838Z,9.60
2022-12-24T09:13:55.367Z,9.60
2022-12-24T09:16:22.452Z,9.60
2022-12-24T09:18:49.268Z,9.60
2022-12-24T09:21:17.560Z,9.60
2022-12-24T09:23:45.748Z,9.60
2022-12-24T09:26:19.179Z,9.60
2022-12-24T09:28:46.190Z,9.70
2022-12-24T09:31:13.663Z,9.60
2022-12-24T09:33:41.562Z,9.70
2022-12-24T09:36:09.323Z,9.70
2022-12-24T09:38:36.625Z,9.70
2022-12-24T09:41:15.718Z,9.70
2022-12-24T09:43:48.218Z,9.70
2022-12-24T09:46:40.058Z,9.80
2022-12-24T09:49:10.976Z,9.80
2022-12-24T09:51:55.401Z,9.80
2022-12-24T09:54:24.119Z,9.80
2022-12-24T09:56:51.309Z,9.80
2022-12-24T09:59:21.887Z,9.80
2022-12-24T10:01:51.036Z,9.80
2022-12-24T10:04:20.377Z,9.80
2022-12-24T10:06:56.536Z,9.80
2022-12-24T10:09:42.245Z,9.80
2022-12-24T10:12:27.876Z,9.90
2022-12-24T10:15:09.817Z,9.90
2022-12-24T10:17:59.873Z,9.90
2022-12-24T10:20:26.798Z,9.90
2022-12-24T10:23:04.270Z,9.90
2022-12-24T10:25:34.048Z,9.90
2022-12-24T10:28:02.605Z,9.90
2022-12-24T10:30:30.049Z,10.00
2022-12-24T10:32:56.906Z,10.00
2022-12-24T10:35:27.575Z,10.00
2022-12-24T10:37:56.186Z,10.00
2022-12-24T10:40:35.064Z,10.00
2022-12-24T10:43:01.990Z,10.00
2022-12-24T10:45:37.833Z,10.00
2022-12-24T10:48:08.078Z,10.00
2022-12-24T10:50:42.726Z,10.10
2022-12-24T10:53:22.366Z,10.10
2022-12-24T10:55:49.404Z,10.10
2022-12-24T10:58:19.311Z,10.20
2022-12-24T11:00:51.294Z,10.30
2022-12-24T11:03:23.276Z,10.30
2022-12-24T11:06:00.569Z,10.40
2022-12-24T11:08:27.494Z,10.40
2022-12-24T11:10:57.431Z,10.50
2022-12-24T11:13:39.354Z,10.50
2022-12-24T11:16:11.274Z,10.50
2022-12-24T11:18:50.813Z,10.50
2022-12-24T11:21:20.931Z,10.40
2022-12-24T11:23:54.131Z,10.50
2022-12-24T11:26:26.826Z,10.50
2022-12-24T11:29:08.731Z,10.50
2022-12-24T11:31:38.972Z,10.50
2022-12-24T11:34:28.735Z,10.50
2022-12-24T11:37:17.679Z,10.60
2022-12-24T11:39:56.444Z,10.60
2022-12-24T11:42:26.634Z,10.60
2022-12-24T11:44:55.486Z,10.70
2022-12-24T11:47:40.221Z,10.90
2022-12-24T11:50:27.362Z,10.90
2022-12-24T11:53:03.258Z,10.90
2022-12-24T11:55:45.925Z,10.90
2022-12-24T11:58:44.465Z,10.90
2022-12-24T12:01:17.324Z,10.90
2022-12-24T12:03:50.271Z,11.00
2022-12-24T12:06:26.377Z,11.00
2022-12-24T12:08:57.735Z,11.10
2022-12-24T12:11:26.699Z,11.10
2022-12-24T12:13:54.020Z,11.20
2022-12-24T12:16:58.220Z,11.20
2022-12-24T12:19:25.661Z,11.20
2022-12-24T12:21:52.661Z,11.30
2022-12-24T12:24:34.980Z,11.30
2022-12-24T12:27:35.901Z,11.30
2022-12-24T12:30:06.781Z,11.30
2022-12-24T12:32:49.367Z,11.30
2022-12-24T12:35:30.772Z,11.40
2022-12-24T12:38:11.974Z,11.40
2022-12-24T12:40:38.800Z,11.40
2022-12-24T12:43:26.875Z,11.40
2022-12-24T12:45:58.945Z,11.40
2022-12-24T12:48:46.437Z,11.40
2022-12-24T12:51:15.753Z,11.40
2022-12-24T12:54:00.923Z,11.50
2022-12-24T12:56:32.830Z,11.50
2022-12-24T12:59:11.870Z,11.50
2022-12-24T13:02:11.069Z,11.50
2022-12-24T13:04:37.910Z,11.50
2022-12-24T13:07:10.481Z,11.60
2022-12-24T13:10:01.833Z,11.60
2022-12-24T13:12:34.871Z,11.60
2022-12-24T13:15:14.009Z,11.70
2022-12-24T13:17:59.394Z,11.70
2022-12-24T13:20:29.711Z,11.70
2022-12-24T13:23:00.036Z,11.70
2022-12-24T13:25:37.496Z,11.70
2022-12-24T13:28:23.570Z,11.70
2022-12-24T13:31:02.571Z,11.80
2022-12-24T13:33:35.497Z,11.70
2022-12-24T13:36:14.327Z,11.70
2022-12-24T13:38:47.266Z,11.70
2022-12-24T13:41:38.892Z,11.80
2022-12-24T13:44:07.189Z,11.80
2022-12-24T13:46:46.808Z,11.80
2022-12-24T13:49:19.520Z,11.80
2022-12-24T13:51:46.793Z,11.80
2022-12-24T13:54:15.060Z,11.70
2022-12-24T13:56:42.221Z,11.70
2022-12-24T13:59:34.536Z,11.70
2022-12-24T14:02:05.341Z,11.70
2022-12-24T14:04:35.558Z,11.70
2022-12-24T14:07:04.039Z,11.70
2022-12-24T14:09:32.124Z,11.70
2022-12-24T14:11:58.868Z,11.80
2022-12-24T14:14:28.745Z,11.70
2022-12-24T14:16:58.700Z,11.80
2022-12-24T14:19:35.455Z,11.80
2022-12-24T14:22:28.824Z,11.80
2022-12-24T14:25:02.961Z,11.80
2022-12-24T14:27:41.941Z,11.80
2022-12-24T14:30:20.629Z,11.80
2022-12-24T14:32:49.193Z,11.80
2022-12-24T14:35:26.156Z,11.80
2022-12-24T14:38:13.927Z,11.80
2022-12-24T14:40:54.756Z,11.80
2022-12-24T14:43:44.172Z,11.80
2022-12-24T14:46:17.043Z,11.80
2022-12-24T14:48:59.111Z,11.80
2022-12-24T14:51:47.968Z,11.80
2022-12-24T14:54:14.835Z,11.80
2022-12-24T14:56:43.278Z,11.80
2022-12-24T14:59:17.555Z,11.80
2022-12-24T15:01:44.840Z,11.80
2022-12-24T15:04:11.667Z,11.70
2022-12-24T15:06:59.523Z,11.70
2022-12-24T15:09:29.452Z,11.70
2022-12-24T15:11:59.037Z,11.70
2022-12-24T15:14:28.254Z,11.60
2022-12-24T15:17:05.410Z,11.60
2022-12-24T15:19:35.148Z,11.60
2022-12-24T15:22:03.621Z,11.50
2022-12-24T15:24:34.453Z,11.50
2022-12-24T15:27:03.290Z,11.50
2022-12-24T15:29:32.387Z,11.50
2022-12-24T15:32:06.433Z,11.50
2022-12-24T15:34:42.196Z,11.50
2022-12-24T15:37:11.986Z,11.50
2022-12-24T15:39:39.501Z,11.50
2022-12-24T15:42:13.718Z,11.40
2022-12-24T15:44:44.610Z,11.40
2022-12-24T15:47:19.630Z,11.40
2022-12-24T15:49:52.383Z,11.30
2022-12-24T15:52:24.298Z,11.30
2022-12-24T15:54:57.369Z,11.30
2022-12-24T15:57:25.072Z,11.20
2022-12-24T15:59:56.968Z,11.20
2022-12-24T16:02:43.337Z,11.20
2022-12-24T16:05:29.749Z,11.20
2022-12-24T16:08:23.263Z,11.20
2022-12-24T16:11:08.254Z,11.10
2022-12-24T16:13:41.176Z,11.00
2022-12-24T16:16:46.768Z,11.00
2022-12-24T16:19:39.484Z,11.00
2022-12-24T16:22:25.741Z,11.00
2022-12-24T16:24:52.715Z,11.10
2022-12-24T16:27:19.529Z,11.10
2022-12-24T16:29:47.068Z,11.10
2022-12-24T16:32:35.296Z,11.00
2022-12-24T16:35:03.945Z,11.00
2022-12-24T16:37:30.841Z,11.00
2022-12-24T16:39:58.063Z,11.00
2022-12-24T16:42:43.254Z,10.90
2022-12-24T16:45:10.567Z,10.90
2022-12-24T16:47:42.768Z,10.90
2022-12-24T16:50:16.284Z,10.90
2022-12-24T16:52:43.101Z,10.80
2022-12-24T16:55:13.352Z,10.80
2022-12-24T16:57:40.712Z,10.80
2022-12-24T17:00:09.363Z,10.70
2022-12-24T17:02:36.318Z,10.70
2022-12-24T17:05:03.334Z,10.70
2022-12-24T17:07:30.143Z,10.60
2022-12-24T17:09:56.944Z,10.60
2022-12-24T17:12:23.730Z,10.60
2022-12-24T17:14:50.516Z,10.60
2022-12-24T17:17:24.633Z,10.60
2022-12-24T17:19:51.723Z,10.50
2022-12-24T17:22:18.672Z,10.50
2022-12-24T17:24:46.086Z,10.50
2022-12-24T17:27:13.176Z,10.50
2022-12-24T17:29:40.082Z,10.40
2022-12-24T17:32:06.915Z,10.40
2022-12-24T17:34:33.824Z,10.40
2022-12-24T17:37:00.717Z,10.30
2022-12-24T17:39:28.151Z,10.30
2022-12-24T17:41:55.108Z,10.30
2022-12-24T17:44:21.905Z,10.20
2022-12-24T17:46:49.014Z,10.20
2022-12-24T17:49:15.966Z,10.20
2022-12-24T17:51:45.586Z,10.20
2022-12-24T17:54:13.349Z,10.10
2022-12-24T17:56:40.298Z,10.10
2022-12-24T17:59:07.132Z,10.10
2022-12-24T18:01:34.290Z,10.10
2022-12-24T18:04:02.916Z,10.10
2022-12-24T18:06:30.558Z,10.00
2022-12-24T18:08:57.507Z,10.00
2022-12-24T18:11:26.887Z,10.00
2022-12-24T18:13:55.626Z,10.00
2022-12-24T18:16:25.533Z,9.90
2022-12-24T18:18:52.925Z,9.90
2022-12-24T18:21:22.562Z,9.90
2022-12-24T18:23:51.227Z,9.90
2022-12-24T18:26:19.767Z,9.80
2022-12-24T18:28:47.567Z,9.80
2022-12-24T18:31:19.699Z,9.80
2022-12-24T18:33:48.422Z,9.80
2022-12-24T18:36:16.084Z,9.70
2022-12-24T18:38:42.953Z,9.70
2022-12-24T18:41:15.119Z,9.70
2022-12-24T18:43:41.961Z,9.70
2022-12-24T18:46:16.539Z,9.70
2022-12-24T18:48:43.372Z,9.60
2022-12-24T18:51:10.791Z,9.60
2022-12-24T18:53:38.053Z,9.60
2022-12-24T18:56:11.820Z,9.60
2022-12-24T18:58:38.737Z,9.60
2022-12-24T19:01:20.340Z,9.50
2022-12-24T19:03:49.208Z,9.50
2022-12-24T19:06:16.829Z,9.50
2022-12-24T19:08:56.929Z,9.50
2022-12-24T19:11:25.538Z,9.50
2022-12-24T19:13:53.343Z,9.40
2022-12-24T19:16:20.836Z,9.40
2022-12-24T19:18:47.973Z,9.40
2022-12-24T19:21:15.991Z,9.40
2022-12-24T19:23:43.264Z,9.30
2022-12-24T19:26:11.231Z,9.30
2022-12-24T19:28:38.132Z,9.30
2022-12-24T19:31:10.635Z,9.30
2022-12-24T19:33:56.718Z,9.30
2022-12-24T19:36:28.830Z,9.30
2022-12-24T19:38:56.727Z,9.20
2022-12-24T19:41:26.645Z,9.20
2022-12-24T19:43:55.846Z,9.20
2022-12-24T19:46:28.023Z,9.20
2022-12-24T19:48:57.094Z,9.20
2022-12-24T19:51:25.329Z,9.20
2022-12-24T19:53:55.065Z,9.20
2022-12-24T19:56:22.831Z,9.20
2022-12-24T19:58:49.873Z,9.20
2022-12-24T20:01:19.423Z,9.20
2022-12-24T20:03:47.180Z,9.20
2022-12-24T20:06:15.145Z,9.20
2022-12-24T20:08:42.541Z,9.20
2022-12-24T20:11:11.775Z,9.20
2022-12-24T20:13:39.515Z,9.20
2022-12-24T20:16:09.053Z,9.20
2022-12-24T20:18:36.400Z,9.20
2022-12-24T20:21:05.471Z,9.20
2022-12-24T20:23:32.860Z,9.20
2022-12-24T20:26:03.231Z,9.20
2022-12-24T20:28:32.464Z,9.20
2022-12-24T20:30:59.281Z,9.20
2022-12-24T20:33:26.342Z,9.20
2022-12-24T20:35:53.333Z,9.20
2022-12-24T20:38:20.122Z,9.20
2022-12-24T20:40:46.951Z,9.20
2022-12-24T20:43:13.772Z,9.20
2022-12-24T20:45:41.213Z,9.20
2022-12-24T20:48:08.197Z,9.20
2022-12-24T20:50:35.066Z,9.20
2022-12-24T20:53:01.848Z,9.20
2022-12-24T20:55:28.804Z,9.10
2022-12-24T20:57:55.735Z,9.10
2022-12-24T21:00:22.768Z,9.10
2022-12-24T21:02:49.892Z,9.20
2022-12-24T21:05:16.835Z,9.10
2022-12-24T21:07:44.115Z,9.20
2022-12-24T21:10:13.004Z,9.20
2022-12-24T21:12:49.489Z,9.10
2022-12-24T21:15:17.489Z,9.10
2022-12-24T21:17:44.320Z,9.20
2022-12-24T21:20:11.864Z,9.20
2022-12-24T21:22:38.976Z,9.20
2022-12-24T21:25:06.651Z,9.20
2022-12-24T21:27:33.532Z,9.10
2022-12-24T21:30:00.382Z,9.10
2022-12-24T21:32:27.398Z,9.20
2022-12-24T21:34:54.316Z,9.20
2022-12-24T21:37:21.221Z,9.20
2022-12-24T21:39:48.105Z,9.10
2022-12-24T21:42:15.003Z,9.10
2022-12-24T21:44:41.915Z,9.10
2022-12-24T21:47:08.751Z,9.10
2022-12-24T21:49:54.068Z,9.10
2022-12-24T21:52:20.881Z,9.00
2022-12-24T21:54:48.141Z,9.10
2022-12-24T21:57:33.511Z,9.10
2022-12-24T22:00:20.216Z,9.10
2022-12-24T22:02:47.451Z,9.00
2022-12-24T22:05:14.835Z,9.00
2022-12-24T22:08:00.228Z,9.00
2022-12-24T22:10:46.323Z,9.00
2022-12-24T22:13:13.134Z,9.10
2022-12-24T22:15:52.201Z,9.10
2022-12-24T22:18:20.822Z,9.00
2022-12-24T22:20:47.962Z,9.10
2022-12-24T22:23:15.182Z,9.10
2022-12-24T22:25:43.655Z,9.10
2022-12-24T22:28:10.993Z,9.10
2022-12-24T22:30:39.158Z,9.10
2022-12-24T22:33:06.785Z,9.10
2022-12-24T22:35:33.808Z,9.20
2022-12-24T22:38:00.780Z,9.10
2022-12-24T22:40:28.398Z,9.20
2022-12-24T22:42:55.219Z,9.20
2022-12-24T22:45:22.680Z,9.20
2022-12-24T22:47:50.205Z,9.20
2022-12-24T22:50:17.225Z,9.20
2022-12-24T22:52:44.106Z,9.20
2022-12-24T22:55:10.934Z,9.20
2022-12-24T22:57:37.756Z,9.20
2022-12-24T23:00:11.148Z,9.30
2022-12-24T23:02:38.381Z,9.30
2022-12-24T23:05:05.537Z,9.30
2022-12-24T23:07:32.368Z,9.30
2022-12-24T23:09:59.822Z,9.40
2022-12-24T23:12:45.309Z,9.40
2022-12-24T23:15:12.286Z,9.40
2022-12-24T23:17:39.101Z,9.40
2022-12-24T23:20:06.810Z,9.40
2022-12-24T23:22:33.632Z,9.40
2022-12-24T23:25:00.582Z,9.40
2022-12-24T23:27:27.439Z,9.40
2022-12-24T23:29:54.290Z,9.40
2022-12-24T23:32:21.614Z,9.40
2022-12-24T23:34:48.399Z,9.40
2022-12-24T23:37:15.596Z,9.40
2022-12-24T23:39:42.409Z,9.30
2022-12-24T23:42:09.206Z,9.40
2022-12-24T23:44:36.326Z,9.40
2022-12-24T23:47:03.152Z,9.40
2022-12-24T23:49:29.975Z,9.40
2022-12-24T23:51:56.825Z,9.40
2022-12-24T23:54:23.707Z,9.50
2022-12-24T23:56:50.495Z,9.40
2022-12-24T23:59:17.437Z,9.40
